Aviation Digital Data Service (ADDS)

Output produced by METARs form (0900 UTC 10 December 2022)
found at http://www.aviationweather.gov/metar/data/
 
METAR text: KGNB 100835Z AUTO 03005G08KT 10SM CLR M07/M13 A3015 RMK AO2 T10741128
Conditions at: KGNB (GRANBY/GRAND CO , CO, US) observed 0835 UTC 10 December 2022
Temperature: -7.4°C (19°F)
Dewpoint: -12.8°C ( 9°F) [RH = 65%]
Pressure (altimeter): 30.15 inches Hg (1021.1 mb)
Winds: from the NNE (30 degrees) at 6 MPH (5 knots; 2.6 m/s)
gusting to 9 MPH (8 knots; 4.1 m/s)
Visibility: 10 or more miles (16+ km)
Ceiling: at least 12,000 feet AGL
Clouds: sky clear below 12,000 feet AGL
Weather: automated observation with no human augmentation;
there may or may not be significant weather present at this time

METAR text: KGNB 100815Z AUTO 06004KT 10SM CLR M07/M13 A3014 RMK AO2 T10721127
Conditions at: KGNB (GRANBY/GRAND CO , CO, US) observed 0815 UTC 10 December 2022
Temperature: -7.2°C (19°F)
Dewpoint: -12.7°C ( 9°F) [RH = 65%]
Pressure (altimeter): 30.14 inches Hg (1020.7 mb)
Winds: from the ENE (60 degrees) at 5 MPH (4 knots; 2.1 m/s)
Visibility: 10 or more miles (16+ km)
Ceiling: at least 12,000 feet AGL
Clouds: sky clear below 12,000 feet AGL
Weather: automated observation with no human augmentation;
there may or may not be significant weather present at this time